createdAt,value
2022-07-29T00:01:55.184Z,16.00
2022-07-29T00:06:57.634Z,15.80
2022-07-29T00:12:02.197Z,15.80
2022-07-29T00:17:04.808Z,15.60
2022-07-29T00:22:07.254Z,15.50
2022-07-29T00:27:09.702Z,15.40
2022-07-29T00:32:12.411Z,15.50
2022-07-29T00:37:14.921Z,15.40
2022-07-29T00:42:17.745Z,15.30
2022-07-29T00:47:20.493Z,15.30
2022-07-29T00:52:23.076Z,15.30
2022-07-29T00:57:25.767Z,15.10
2022-07-29T01:02:28.395Z,15.10
2022-07-29T01:07:33.342Z,15.00
2022-07-29T01:12:37.987Z,14.90
2022-07-29T01:17:52.845Z,14.80
2022-07-29T01:23:21.591Z,14.70
2022-07-29T01:29:01.517Z,14.70
2022-07-29T01:34:13.079Z,14.60
2022-07-29T01:39:24.441Z,14.60
2022-07-29T01:44:34.060Z,14.50
2022-07-29T01:49:40.579Z,14.50
2022-07-29T01:54:53.259Z,14.40
2022-07-29T01:59:58.169Z,14.30
2022-07-29T02:05:04.357Z,14.30
2022-07-29T02:10:09.883Z,14.30
2022-07-29T02:15:13.118Z,14.20
2022-07-29T02:20:17.767Z,14.10
2022-07-29T02:25:26.027Z,14.10
2022-07-29T02:30:43.304Z,14.10
2022-07-29T02:35:47.726Z,14.00
2022-07-29T02:40:54.642Z,14.00
2022-07-29T02:46:00.120Z,14.00
2022-07-29T02:51:43.708Z,13.90
2022-07-29T02:56:45.853Z,13.70
2022-07-29T03:01:49.055Z,13.70
2022-07-29T03:06:53.472Z,13.70
2022-07-29T03:11:57.961Z,13.60
2022-07-29T03:17:00.974Z,13.60
2022-07-29T03:22:03.667Z,13.70
2022-07-29T03:27:06.588Z,13.70
2022-07-29T03:32:09.161Z,13.70
2022-07-29T03:37:11.658Z,13.70
2022-07-29T03:42:17.306Z,13.90
2022-07-29T03:47:43.656Z,13.80
2022-07-29T03:52:47.450Z,13.70
2022-07-29T03:57:51.598Z,13.70
2022-07-29T04:02:54.248Z,13.80
2022-07-29T04:07:56.862Z,13.90
2022-07-29T04:13:00.913Z,14.00
2022-07-29T04:18:03.497Z,14.20
2022-07-29T04:23:05.923Z,14.50
2022-07-29T04:28:09.353Z,15.40
2022-07-29T04:33:11.836Z,16.00
2022-07-29T04:38:15.686Z,16.40
2022-07-29T04:43:22.487Z,16.80
2022-07-29T04:48:28.682Z,17.00
2022-07-29T04:53:31.647Z,17.30
2022-07-29T04:58:37.253Z,17.60
2022-07-29T05:03:39.745Z,17.60
2022-07-29T05:08:42.243Z,18.00
2022-07-29T05:13:45.769Z,18.20
2022-07-29T05:18:49.642Z,18.50
2022-07-29T05:23:52.041Z,18.80
2022-07-29T05:28:55.494Z,18.80
2022-07-29T05:33:58.133Z,18.90
2022-07-29T05:39:00.588Z,18.90
2022-07-29T05:44:03.240Z,19.20
2022-07-29T05:49:07.566Z,19.20
2022-07-29T05:54:10.494Z,19.20
2022-07-29T05:59:17.805Z,19.60
2022-07-29T06:04:21.259Z,20.00
2022-07-29T06:09:24.123Z,20.10
2022-07-29T06:14:27.682Z,20.30
2022-07-29T06:19:30.216Z,20.60
2022-07-29T06:24:32.680Z,21.10
2022-07-29T06:29:35.244Z,21.40
2022-07-29T06:34:37.670Z,21.70
2022-07-29T06:39:40.116Z,22.20
2022-07-29T06:44:42.910Z,21.90
2022-07-29T06:49:45.352Z,21.90
2022-07-29T06:54:49.330Z,22.20
2022-07-29T06:59:51.759Z,22.30
2022-07-29T07:04:54.370Z,22.50
2022-07-29T07:09:56.844Z,22.20
2022-07-29T07:14:59.271Z,22.30
2022-07-29T07:20:01.881Z,22.60
2022-07-29T07:25:04.579Z,22.90
2022-07-29T07:30:07.999Z,22.60
2022-07-29T07:35:11.915Z,22.50
2022-07-29T07:40:18.528Z,22.30
2022-07-29T07:45:21.493Z,22.20
2022-07-29T07:50:24.125Z,22.20
2022-07-29T07:55:27.288Z,22.60
2022-07-29T08:00:29.955Z,22.60
2022-07-29T08:05:32.648Z,22.70
2022-07-29T08:10:54.399Z,22.80
2022-07-29T08:16:18.154Z,23.10
2022-07-29T08:21:20.662Z,23.60
2022-07-29T08:26:23.721Z,23.70
2022-07-29T08:31:26.349Z,23.50
2022-07-29T08:36:28.998Z,23.70
2022-07-29T08:41:32.394Z,23.30
2022-07-29T08:46:35.098Z,23.40
2022-07-29T08:51:48.539Z,23.70
2022-07-29T08:56:52.971Z,23.50
2022-07-29T09:02:00.724Z,23.60
2022-07-29T09:07:05.940Z,23.50
2022-07-29T09:12:09.283Z,23.70
2022-07-29T09:17:11.768Z,23.80
2022-07-29T09:22:31.280Z,24.20
2022-07-29T09:27:34.701Z,24.40
2022-07-29T09:33:02.279Z,24.60
2022-07-29T09:38:14.908Z,24.20
2022-07-29T09:43:17.355Z,24.30
2022-07-29T09:48:26.002Z,24.50
2022-07-29T09:53:37.547Z,24.70
2022-07-29T09:58:41.172Z,24.60
2022-07-29T10:03:54.069Z,24.70
2022-07-29T10:09:07.553Z,24.70
2022-07-29T10:14:10.218Z,24.80
2022-07-29T10:19:14.799Z,24.70
2022-07-29T10:24:17.526Z,25.50
2022-07-29T10:29:20.090Z,25.60
2022-07-29T10:34:34.210Z,25.90
2022-07-29T10:40:24.917Z,26.10
2022-07-29T10:45:27.686Z,25.90
2022-07-29T10:51:05.395Z,26.00
2022-07-29T10:56:28.272Z,26.20
2022-07-29T11:01:37.281Z,26.70
2022-07-29T11:07:05.226Z,26.60
2022-07-29T11:12:42.960Z,26.20
2022-07-29T11:17:54.645Z,26.20
2022-07-29T11:22:57.136Z,25.90
2022-07-29T11:28:22.731Z,26.00
2022-07-29T11:33:54.037Z,26.70
2022-07-29T11:39:27.558Z,27.30
2022-07-29T11:50:52.526Z,27.70
2022-07-29T11:55:58.084Z,27.90
2022-07-29T12:01:04.280Z,27.60
2022-07-29T12:06:18.095Z,27.50
2022-07-29T12:07:03.897Z,27.20
2022-07-29T12:11:23.279Z,27.10
2022-07-29T12:16:37.121Z,27.50
2022-07-29T12:21:56.301Z,27.80
2022-07-29T12:27:02.697Z,27.90
2022-07-29T12:32:14.242Z,27.80
2022-07-29T12:37:18.108Z,27.80
2022-07-29T12:42:20.687Z,27.40
2022-07-29T12:47:26.380Z,27.80
2022-07-29T12:52:34.054Z,27.60
2022-07-29T12:57:53.474Z,27.10
2022-07-29T13:02:57.876Z,27.20
2022-07-29T13:08:21.980Z,27.80
2022-07-29T13:13:26.538Z,28.20
2022-07-29T13:18:33.566Z,28.00
2022-07-29T13:23:38.244Z,28.40
2022-07-29T13:28:41.043Z,28.40
2022-07-29T13:33:47.258Z,28.60
2022-07-29T13:38:49.852Z,28.50
2022-07-29T13:43:52.573Z,28.90
2022-07-29T13:48:55.370Z,28.60
2022-07-29T13:53:57.933Z,28.60
2022-07-29T13:59:01.248Z,28.00
2022-07-29T14:04:05.165Z,28.10
2022-07-29T14:09:09.971Z,27.80
2022-07-29T14:14:12.735Z,28.10
2022-07-29T14:19:15.471Z,28.20
2022-07-29T14:24:21.713Z,28.20
2022-07-29T14:29:37.038Z,27.60
2022-07-29T14:34:41.134Z,27.70
2022-07-29T14:39:43.671Z,27.80
2022-07-29T14:44:46.247Z,27.90
2022-07-29T14:49:49.483Z,27.80
2022-07-29T14:54:52.194Z,27.70
2022-07-29T14:59:54.820Z,27.70
2022-07-29T15:04:57.700Z,27.80
2022-07-29T15:10:03.701Z,27.60
2022-07-29T15:15:06.781Z,27.40
2022-07-29T15:20:10.034Z,27.40
2022-07-29T15:25:12.814Z,27.40
2022-07-29T15:30:30.940Z,27.40
2022-07-29T15:35:40.414Z,27.40
2022-07-29T15:40:44.639Z,27.70
2022-07-29T15:46:06.018Z,27.30
2022-07-29T15:51:09.000Z,27.00
2022-07-29T15:56:11.871Z,26.90
2022-07-29T16:01:14.760Z,26.90
2022-07-29T16:06:18.036Z,27.00
2022-07-29T16:11:20.928Z,27.10
2022-07-29T16:16:23.798Z,27.10
2022-07-29T16:21:26.619Z,26.90
2022-07-29T16:26:29.263Z,26.90
2022-07-29T16:31:32.387Z,27.00
2022-07-29T16:36:34.871Z,27.00
2022-07-29T16:41:40.146Z,26.60
2022-07-29T16:46:44.913Z,26.50
2022-07-29T16:51:49.999Z,26.50
2022-07-29T16:56:52.886Z,26.50
2022-07-29T17:01:55.564Z,26.60
2022-07-29T17:06:58.665Z,26.40
2022-07-29T17:12:01.869Z,26.40
2022-07-29T17:17:13.810Z,26.30
2022-07-29T17:22:23.600Z,26.10
2022-07-29T17:27:26.043Z,26.10
2022-07-29T17:32:28.482Z,25.90
2022-07-29T17:37:30.970Z,25.60
2022-07-29T17:42:33.723Z,25.50
2022-07-29T17:47:38.525Z,25.30
2022-07-29T17:52:41.749Z,25.20
2022-07-29T17:57:44.273Z,25.00
2022-07-29T18:02:47.108Z,24.80
2022-07-29T18:07:50.086Z,24.70
2022-07-29T18:12:56.452Z,24.50
2022-07-29T18:17:59.003Z,24.40
2022-07-29T18:23:02.138Z,24.30
2022-07-29T18:28:05.310Z,24.20
2022-07-29T18:33:21.811Z,24.00
2022-07-29T18:38:24.470Z,23.80
2022-07-29T18:43:26.889Z,23.70
2022-07-29T18:48:29.401Z,23.60
2022-07-29T18:53:31.889Z,23.40
2022-07-29T18:58:39.606Z,23.30
2022-07-29T19:03:42.091Z,23.10
2022-07-29T19:08:44.549Z,23.00
2022-07-29T19:13:47.871Z,22.90
2022-07-29T19:18:50.358Z,22.80
2022-07-29T19:24:01.556Z,22.60
2022-07-29T19:29:10.106Z,22.40
2022-07-29T19:34:12.752Z,22.40
2022-07-29T19:39:15.525Z,22.20
2022-07-29T19:44:20.982Z,22.10
2022-07-29T19:49:23.626Z,22.00
2022-07-29T19:54:26.912Z,21.90
2022-07-29T19:59:29.555Z,21.80
2022-07-29T20:04:32.230Z,21.70
2022-07-29T20:09:37.047Z,21.60
2022-07-29T20:14:39.870Z,21.50
2022-07-29T20:19:45.629Z,21.30
2022-07-29T20:24:48.256Z,21.20
2022-07-29T20:29:50.698Z,21.00
2022-07-29T20:34:53.184Z,20.90
2022-07-29T20:39:55.601Z,20.90
2022-07-29T20:44:58.587Z,20.70
2022-07-29T20:50:01.236Z,20.60
2022-07-29T20:55:04.061Z,20.60
2022-07-29T21:00:09.296Z,20.50
2022-07-29T21:05:11.975Z,20.40
2022-07-29T21:10:15.048Z,20.30
2022-07-29T21:15:20.865Z,20.20
2022-07-29T21:20:23.345Z,20.10
2022-07-29T21:25:26.523Z,20.00
2022-07-29T21:30:29.021Z,20.00
2022-07-29T21:36:06.280Z,19.80
2022-07-29T21:40:54.461Z,19.70
2022-07-29T21:45:58.199Z,19.80
2022-07-29T21:51:00.695Z,19.60
2022-07-29T21:56:03.180Z,19.50
2022-07-29T22:01:06.859Z,19.40
2022-07-29T22:06:16.646Z,19.40
2022-07-29T22:11:21.042Z,19.30
2022-07-29T22:16:23.967Z,19.20
2022-07-29T22:21:26.608Z,19.20
2022-07-29T22:26:29.149Z,19.00
2022-07-29T22:31:31.686Z,19.00
2022-07-29T22:36:34.132Z,19.00
2022-07-29T22:41:36.650Z,19.00
2022-07-29T22:46:39.127Z,19.10
2022-07-29T22:51:41.641Z,19.00
2022-07-29T22:56:44.141Z,19.00
2022-07-29T23:01:46.653Z,19.00
2022-07-29T23:06:49.842Z,18.80
2022-07-29T23:11:52.317Z,18.80
2022-07-29T23:16:55.277Z,18.70
2022-07-29T23:21:57.807Z,18.60
2022-07-29T23:27:00.455Z,18.50
2022-07-29T23:32:03.320Z,18.40
2022-07-29T23:37:06.042Z,18.20
2022-07-29T23:42:08.478Z,18.10
2022-07-29T23:47:10.945Z,18.00
2022-07-29T23:52:13.421Z,18.00
2022-07-29T23:57:15.867Z,18.00
